createdAt,value
2023-03-25T00:03:17.745Z,15.80
2023-03-25T00:08:19.778Z,12.77
2023-03-25T00:13:23.467Z,12.18
2023-03-25T00:18:29.231Z,11.98
2023-03-25T00:23:31.955Z,10.05
2023-03-25T00:28:36.505Z,11.52
2023-03-25T00:33:41.581Z,9.23
2023-03-25T00:38:45.477Z,11.20
2023-03-25T00:43:47.653Z,11.32
2023-03-25T00:48:50.677Z,7.18
2023-03-25T00:53:54.860Z,12.88
2023-03-25T00:58:57.842Z,12.85
2023-03-25T01:04:00.471Z,8.10
2023-03-25T01:09:06.336Z,16.27
2023-03-25T01:14:17.428Z,12.07
2023-03-25T01:19:19.645Z,10.10
2023-03-25T01:24:21.856Z,10.60
2023-03-25T01:29:24.230Z,14.35
2023-03-25T01:34:26.291Z,12.98
2023-03-25T01:39:28.516Z,10.35
2023-03-25T01:44:30.957Z,9.30
2023-03-25T01:49:44.330Z,7.30
2023-03-25T01:54:49.910Z,6.72
2023-03-25T01:59:53.987Z,10.00
2023-03-25T02:05:01.249Z,11.93
2023-03-25T02:10:09.043Z,6.05
2023-03-25T02:15:12.227Z,10.65
2023-03-25T02:20:36.333Z,7.80
2023-03-25T02:26:06.189Z,13.23
2023-03-25T02:31:33.102Z,7.38
2023-03-25T02:37:03.399Z,10.20
2023-03-25T02:42:22.098Z,11.98
2023-03-25T02:47:30.408Z,11.23
2023-03-25T02:52:38.108Z,14.48
2023-03-25T02:57:44.111Z,14.40
2023-03-25T03:03:03.811Z,10.98
2023-03-25T03:13:44.336Z,10.85
2023-03-25T03:19:16.788Z,14.00
2023-03-25T03:24:42.092Z,14.52
2023-03-25T03:29:52.730Z,13.63
2023-03-25T03:35:18.867Z,17.45
2023-03-25T03:40:24.650Z,13.77
2023-03-25T03:45:34.627Z,14.43
2023-03-25T03:50:41.886Z,12.27
2023-03-25T03:55:52.769Z,16.42
2023-03-25T04:06:35.431Z,11.02
2023-03-25T04:11:43.557Z,11.40
2023-03-25T04:16:45.774Z,13.48
2023-03-25T04:21:48.052Z,12.10
2023-03-25T04:26:50.162Z,8.80
2023-03-25T04:31:56.230Z,11.60
2023-03-25T04:36:58.819Z,14.32
2023-03-25T04:42:04.076Z,11.73
2023-03-25T04:47:11.852Z,12.02
2023-03-25T04:52:13.863Z,10.77
2023-03-25T04:57:15.892Z,12.30
2023-03-25T05:02:18.419Z,11.23
2023-03-25T05:07:20.405Z,11.77
2023-03-25T05:12:22.910Z,11.07
2023-03-25T05:17:26.252Z,7.93
2023-03-25T05:22:28.326Z,15.98
2023-03-25T05:27:30.325Z,12.70
2023-03-25T05:32:33.419Z,15.98
2023-03-25T05:37:35.749Z,12.45
2023-03-25T05:42:37.806Z,16.33
2023-03-25T05:47:40.185Z,14.07
2023-03-25T05:52:42.867Z,15.00
2023-03-25T05:57:44.900Z,17.65
2023-03-25T06:02:48.900Z,13.27
2023-03-25T06:07:56.002Z,9.07
2023-03-25T06:12:58.049Z,17.55
2023-03-25T06:18:00.634Z,28.00
2023-03-25T06:23:02.810Z,17.17
2023-03-25T06:28:06.089Z,9.75
2023-03-25T06:33:10.662Z,14.93
2023-03-25T06:38:13.850Z,15.65
2023-03-25T06:43:35.074Z,21.42
2023-03-25T06:49:12.059Z,17.45
2023-03-25T06:54:15.264Z,14.90
2023-03-25T06:59:17.470Z,20.67
2023-03-25T07:04:19.794Z,18.85
2023-03-25T07:09:21.965Z,19.75
2023-03-25T07:14:24.206Z,18.98
2023-03-25T07:19:26.541Z,19.23
2023-03-25T07:24:28.775Z,26.95
2023-03-25T07:29:31.163Z,17.63
2023-03-25T07:34:33.373Z,21.25
2023-03-25T07:39:35.839Z,21.83
2023-03-25T07:44:38.214Z,21.38
2023-03-25T07:49:40.980Z,25.45
2023-03-25T07:54:43.146Z,17.98
2023-03-25T07:59:45.631Z,25.13
2023-03-25T08:04:48.568Z,25.63
2023-03-25T08:09:50.747Z,27.88
2023-03-25T08:14:52.867Z,29.60
2023-03-25T08:19:55.334Z,22.00
2023-03-25T08:24:57.822Z,24.45
2023-03-25T08:30:00.834Z,16.00
2023-03-25T08:35:05.856Z,23.48
2023-03-25T08:40:11.053Z,22.17
2023-03-25T08:45:15.505Z,24.85
2023-03-25T08:50:17.895Z,24.23
2023-03-25T08:55:20.357Z,28.63
2023-03-25T09:00:24.886Z,26.02
2023-03-25T09:05:27.284Z,24.23
2023-03-25T09:10:29.597Z,24.52
2023-03-25T09:15:32.408Z,34.47
2023-03-25T09:20:34.717Z,29.38
2023-03-25T09:25:37.816Z,29.73
2023-03-25T09:30:40.198Z,22.25
2023-03-25T09:35:42.460Z,26.95
2023-03-25T09:40:45.470Z,24.23
2023-03-25T09:45:49.918Z,28.98
2023-03-25T09:50:52.116Z,28.23
2023-03-25T09:55:54.336Z,24.75
2023-03-25T10:01:19.946Z,26.35
2023-03-25T10:06:32.352Z,26.75
2023-03-25T10:12:06.134Z,23.70
2023-03-25T10:17:20.806Z,26.45
2023-03-25T10:22:55.420Z,24.70
2023-03-25T10:28:00.845Z,28.13
2023-03-25T10:33:08.634Z,30.48
2023-03-25T10:38:18.538Z,24.55
2023-03-25T10:43:27.723Z,19.65
2023-03-25T10:48:31.523Z,22.33
2023-03-25T10:53:34.160Z,15.27
2023-03-25T10:58:39.519Z,13.07
2023-03-25T11:03:43.492Z,19.10
2023-03-25T11:09:08.468Z,11.85
2023-03-25T11:14:11.406Z,11.80
2023-03-25T11:19:25.415Z,13.40
2023-03-25T11:24:34.063Z,14.15
2023-03-25T11:29:37.205Z,13.63
2023-03-25T11:34:42.445Z,16.80
2023-03-25T11:39:55.257Z,14.38
2023-03-25T11:44:59.563Z,18.25
2023-03-25T11:50:03.726Z,15.40
2023-03-25T11:55:06.440Z,17.38
2023-03-25T12:00:36.509Z,16.98
2023-03-25T12:05:38.924Z,13.30
2023-03-25T12:10:50.521Z,14.75
2023-03-25T12:15:57.443Z,15.30
2023-03-25T12:21:27.263Z,13.07
2023-03-25T12:26:43.092Z,14.70
2023-03-25T12:32:11.288Z,14.35
2023-03-25T12:37:26.872Z,14.90
2023-03-25T12:42:51.258Z,11.48
2023-03-25T12:48:01.651Z,16.48
2023-03-25T12:53:14.337Z,10.60
2023-03-25T12:58:42.030Z,12.95
2023-03-25T13:04:02.366Z,12.63
2023-03-25T13:09:14.185Z,14.75
2023-03-25T13:14:23.220Z,9.95
2023-03-25T13:19:28.822Z,9.63
2023-03-25T13:24:49.653Z,15.43
2023-03-25T13:29:55.935Z,13.05
2023-03-25T13:35:09.298Z,7.72
2023-03-25T13:40:14.851Z,11.13
2023-03-25T13:45:22.858Z,7.95
2023-03-25T13:50:30.470Z,9.68
2023-03-25T13:55:37.659Z,9.32
2023-03-25T14:00:58.411Z,13.48
2023-03-25T14:06:15.555Z,9.95
2023-03-25T14:11:36.364Z,12.43
2023-03-25T14:16:44.332Z,8.60
2023-03-25T14:21:51.722Z,9.90
2023-03-25T14:27:01.626Z,8.35
2023-03-25T14:32:09.207Z,8.27
2023-03-25T14:37:18.289Z,10.77
2023-03-25T14:42:28.570Z,14.02
2023-03-25T14:47:33.900Z,8.60
2023-03-25T14:52:43.275Z,11.02
2023-03-25T14:57:46.785Z,10.65
2023-03-25T15:03:11.885Z,12.90
2023-03-25T15:08:16.730Z,12.27
2023-03-25T15:13:24.532Z,11.82
2023-03-25T15:18:35.623Z,14.98
2023-03-25T15:23:49.568Z,13.27
2023-03-25T15:29:06.564Z,16.95
2023-03-25T15:34:18.889Z,13.57
2023-03-25T15:39:33.423Z,11.60
2023-03-25T15:44:55.580Z,10.85
2023-03-25T15:50:25.662Z,12.50
2023-03-25T15:55:42.526Z,13.00
2023-03-25T16:00:48.608Z,10.70
2023-03-25T16:05:56.975Z,18.27
2023-03-25T16:11:19.293Z,13.48
2023-03-25T16:16:21.468Z,17.70
2023-03-25T16:21:23.532Z,15.80
2023-03-25T16:26:47.934Z,13.60
2023-03-25T16:31:59.010Z,13.82
2023-03-25T16:37:02.524Z,14.43
2023-03-25T16:42:18.854Z,20.70
2023-03-25T16:47:22.097Z,25.08
2023-03-25T16:52:29.747Z,17.27
2023-03-25T16:57:39.162Z,16.85
2023-03-25T17:02:41.783Z,16.17
2023-03-25T17:07:44.276Z,15.25
2023-03-25T17:13:18.358Z,19.83
2023-03-25T17:18:25.642Z,14.57
2023-03-25T17:23:42.595Z,20.45
2023-03-25T17:29:02.839Z,17.30
2023-03-25T17:34:19.235Z,18.80
2023-03-25T17:39:29.978Z,16.52
2023-03-25T17:44:35.934Z,17.30
2023-03-25T17:49:38.138Z,18.02
2023-03-25T17:54:40.576Z,13.57
2023-03-25T17:59:43.765Z,18.95
2023-03-25T18:04:45.997Z,17.70
2023-03-25T18:09:48.942Z,17.40
2023-03-25T18:14:51.139Z,24.48
2023-03-25T18:19:53.213Z,21.75
2023-03-25T18:24:55.477Z,20.23
2023-03-25T18:29:58.296Z,18.35
2023-03-25T18:35:00.561Z,22.38
2023-03-25T18:40:15.350Z,24.20
2023-03-25T18:45:22.505Z,21.67
2023-03-25T18:50:32.452Z,20.85
2023-03-25T18:55:35.749Z,20.67
2023-03-25T19:00:39.857Z,25.42
2023-03-25T19:05:42.440Z,19.65
2023-03-25T19:10:45.473Z,19.85
2023-03-25T19:15:47.568Z,20.25
2023-03-25T19:20:50.106Z,22.88
2023-03-25T19:25:53.298Z,20.88
2023-03-25T19:31:00.472Z,19.95
2023-03-25T19:36:04.325Z,25.95
2023-03-25T19:41:09.676Z,13.88
2023-03-25T19:46:11.862Z,15.63
2023-03-25T19:51:13.876Z,23.58
2023-03-25T19:56:15.887Z,26.92
2023-03-25T20:01:18.093Z,23.33
2023-03-25T20:06:20.169Z,21.38
2023-03-25T20:11:22.229Z,37.13
2023-03-25T20:16:24.406Z,8.55
2023-03-25T20:21:26.585Z,6.72
2023-03-25T20:26:28.744Z,3.17
2023-03-25T20:31:32.860Z,6.63
2023-03-25T20:36:34.946Z,9.60
2023-03-25T20:41:37.034Z,8.02
2023-03-25T20:46:40.368Z,10.25
2023-03-25T20:51:43.372Z,7.07
2023-03-25T20:56:46.719Z,11.88
2023-03-25T21:01:50.830Z,15.52
2023-03-25T21:06:53.261Z,17.58
2023-03-25T21:11:55.332Z,17.27
2023-03-25T21:16:57.922Z,25.25
2023-03-25T21:22:00.454Z,22.83
2023-03-25T21:27:03.122Z,31.95
2023-03-25T21:32:07.586Z,27.67
2023-03-25T21:37:09.924Z,28.63
2023-03-25T21:42:11.985Z,34.33
2023-03-25T21:47:14.381Z,36.17
2023-03-25T21:52:17.770Z,29.60
2023-03-25T21:57:20.627Z,37.17
2023-03-25T22:02:22.799Z,24.50
2023-03-25T22:07:24.946Z,36.80
2023-03-25T22:12:27.270Z,41.28
2023-03-25T22:17:29.367Z,34.15
2023-03-25T22:22:31.492Z,47.55
2023-03-25T22:27:33.907Z,48.50
2023-03-25T22:32:36.015Z,43.72
2023-03-25T22:37:38.256Z,47.80
2023-03-25T22:42:40.417Z,46.00
2023-03-25T22:47:42.706Z,46.67
2023-03-25T22:52:44.866Z,52.75
2023-03-25T22:57:47.057Z,45.13
2023-03-25T23:02:49.126Z,52.28
2023-03-25T23:07:51.187Z,40.60
2023-03-25T23:12:53.429Z,50.70
2023-03-25T23:17:55.606Z,41.72
2023-03-25T23:22:58.134Z,44.08
2023-03-25T23:28:00.226Z,37.20
2023-03-25T23:33:02.495Z,36.35
2023-03-25T23:38:04.715Z,46.60
2023-03-25T23:43:07.047Z,52.35
2023-03-25T23:48:09.448Z,46.17
2023-03-25T23:53:11.497Z,47.90
2023-03-25T23:58:14.571Z,34.53
